createdAt,value
2022-07-29T00:00:29.184Z,2.00
2022-07-29T00:01:29.335Z,2.00
2022-07-29T00:02:29.632Z,2.00
2022-07-29T00:03:29.751Z,1.90
2022-07-29T00:04:29.999Z,2.00
2022-07-29T00:05:30.051Z,2.00
2022-07-29T00:06:30.232Z,2.30
2022-07-29T00:07:30.407Z,2.00
2022-07-29T00:08:30.562Z,1.90
2022-07-29T00:09:30.723Z,2.00
2022-07-29T00:10:30.878Z,1.90
2022-07-29T00:11:31.065Z,2.60
2022-07-29T00:12:31.277Z,2.10
2022-07-29T00:13:31.779Z,1.70
2022-07-29T00:14:31.587Z,2.10
2022-07-29T00:15:31.755Z,2.10
2022-07-29T00:16:31.973Z,2.10
2022-07-29T00:17:32.086Z,2.10
2022-07-29T00:18:32.247Z,2.10
2022-07-29T00:19:32.396Z,2.00
2022-07-29T00:20:32.587Z,2.00
2022-07-29T00:21:32.751Z,1.80
2022-07-29T00:22:32.914Z,1.90
2022-07-29T00:23:36.728Z,2.20
2022-07-29T00:24:33.249Z,2.00
2022-07-29T00:25:33.910Z,1.90
2022-07-29T00:26:33.642Z,1.70
2022-07-29T00:27:33.786Z,1.90
2022-07-29T00:28:33.984Z,2.00
2022-07-29T00:29:35.080Z,2.20
2022-07-29T00:30:34.322Z,1.80
2022-07-29T00:31:34.537Z,2.00
2022-07-29T00:32:34.641Z,2.20
2022-07-29T00:33:34.803Z,2.20
2022-07-29T00:34:34.962Z,1.90
2022-07-29T00:35:35.142Z,2.10
2022-07-29T00:36:35.302Z,1.80
2022-07-29T00:37:35.463Z,1.90
2022-07-29T00:38:35.624Z,2.00
2022-07-29T00:39:35.780Z,1.80
2022-07-29T00:40:35.986Z,2.10
2022-07-29T00:41:36.143Z,2.30
2022-07-29T00:42:36.305Z,2.00
2022-07-29T00:43:36.462Z,2.20
2022-07-29T00:44:36.667Z,2.00
2022-07-29T00:45:36.836Z,2.20
2022-07-29T00:46:37.056Z,2.10
2022-07-29T00:47:37.162Z,2.00
2022-07-29T00:48:37.394Z,2.30
2022-07-29T00:49:37.516Z,2.10
2022-07-29T00:50:37.668Z,2.40
2022-07-29T00:51:37.829Z,2.30
2022-07-29T00:52:37.992Z,2.30
2022-07-29T00:53:38.149Z,2.40
2022-07-29T00:54:43.917Z,2.20
2022-07-29T00:55:39.479Z,2.10
2022-07-29T00:56:38.654Z,2.30
2022-07-29T00:57:38.814Z,2.30
2022-07-29T00:58:38.979Z,2.40
2022-07-29T00:59:39.133Z,2.50
2022-07-29T01:00:39.395Z,2.50
2022-07-29T01:01:39.550Z,2.70
2022-07-29T01:02:39.676Z,2.40
2022-07-29T01:03:39.831Z,2.20
2022-07-29T01:04:40.033Z,2.70
2022-07-29T01:05:49.899Z,2.60
2022-07-29T01:06:41.360Z,2.60
2022-07-29T01:07:40.545Z,2.40
2022-07-29T01:08:40.703Z,2.70
2022-07-29T01:09:46.097Z,2.40
2022-07-29T01:10:42.093Z,2.60
2022-07-29T01:11:41.235Z,2.70
2022-07-29T01:12:41.399Z,2.60
2022-07-29T01:13:41.555Z,2.60
2022-07-29T01:14:41.745Z,2.70
2022-07-29T01:15:41.899Z,2.50
2022-07-29T01:16:43.171Z,2.40
2022-07-29T01:17:52.614Z,2.50
2022-07-29T01:18:43.458Z,2.70
2022-07-29T01:19:42.643Z,2.70
2022-07-29T01:20:42.818Z,2.70
2022-07-29T01:21:42.977Z,2.70
2022-07-29T01:22:43.144Z,2.90
2022-07-29T01:23:43.296Z,2.80
2022-07-29T01:24:43.455Z,3.10
2022-07-29T01:25:43.630Z,2.40
2022-07-29T01:26:43.780Z,2.60
2022-07-29T01:27:43.940Z,2.70
2022-07-29T01:28:44.100Z,2.90
2022-07-29T01:29:44.256Z,3.00
2022-07-29T01:30:44.443Z,2.80
2022-07-29T01:31:58.599Z,2.90
2022-07-29T01:32:45.786Z,3.00
2022-07-29T01:33:44.963Z,3.10
2022-07-29T01:34:45.141Z,2.80
2022-07-29T01:35:45.297Z,3.00
2022-07-29T01:36:45.495Z,2.80
2022-07-29T01:37:45.647Z,2.80
2022-07-29T01:38:45.838Z,3.10
2022-07-29T01:39:46.010Z,2.80
2022-07-29T01:40:46.164Z,3.20
2022-07-29T01:41:46.324Z,3.00
2022-07-29T01:42:46.519Z,2.90
2022-07-29T01:43:46.688Z,2.80
2022-07-29T01:44:46.856Z,3.00
2022-07-29T01:45:47.014Z,2.90
2022-07-29T01:46:47.223Z,3.10
2022-07-29T01:47:47.348Z,3.10
2022-07-29T01:48:47.672Z,2.90
2022-07-29T01:49:47.738Z,3.00
2022-07-29T01:50:47.867Z,3.00
2022-07-29T01:51:48.018Z,3.10
2022-07-29T01:52:48.199Z,2.90
2022-07-29T01:53:48.368Z,2.90
2022-07-29T01:54:48.514Z,2.90
2022-07-29T01:55:48.679Z,2.80
2022-07-29T01:56:48.851Z,3.00
2022-07-29T01:57:49.002Z,2.80
2022-07-29T01:58:49.161Z,2.80
2022-07-29T01:59:49.321Z,2.90
2022-07-29T02:00:49.483Z,2.70
2022-07-29T02:01:49.700Z,2.90
2022-07-29T02:02:50.814Z,3.10
2022-07-29T02:03:49.996Z,3.00
2022-07-29T02:04:50.238Z,2.60
2022-07-29T02:05:50.344Z,2.70
2022-07-29T02:06:50.555Z,3.20
2022-07-29T02:07:50.684Z,2.80
2022-07-29T02:08:50.843Z,3.10
2022-07-29T02:09:50.995Z,2.70
2022-07-29T02:10:51.160Z,2.90
2022-07-29T02:11:51.346Z,3.10
2022-07-29T02:12:51.500Z,2.80
2022-07-29T02:13:51.697Z,2.90
2022-07-29T02:14:51.849Z,3.20
2022-07-29T02:15:52.140Z,2.80
2022-07-29T02:16:52.205Z,3.00
2022-07-29T02:17:52.402Z,2.80
2022-07-29T02:18:52.568Z,3.00
2022-07-29T02:19:52.724Z,2.60
2022-07-29T02:20:52.889Z,2.90
2022-07-29T02:21:53.049Z,3.10
2022-07-29T02:22:53.223Z,2.90
2022-07-29T02:23:53.380Z,2.90
2022-07-29T02:24:53.536Z,3.20
2022-07-29T02:25:53.766Z,2.90
2022-07-29T02:26:53.891Z,3.00
2022-07-29T02:27:54.053Z,3.30
2022-07-29T02:28:54.210Z,2.90
2022-07-29T02:29:54.370Z,2.70
2022-07-29T02:30:54.601Z,2.70
2022-07-29T02:31:54.716Z,2.80
2022-07-29T02:32:54.883Z,2.90
2022-07-29T02:33:55.065Z,2.80
2022-07-29T02:34:55.218Z,2.90
2022-07-29T02:35:55.432Z,2.80
2022-07-29T02:36:55.587Z,3.00
2022-07-29T02:37:55.785Z,2.90
2022-07-29T02:38:55.946Z,3.20
2022-07-29T02:39:56.110Z,2.70
2022-07-29T02:40:56.297Z,3.00
2022-07-29T02:41:56.419Z,3.00
2022-07-29T02:42:56.615Z,3.00
2022-07-29T02:43:56.803Z,2.80
2022-07-29T02:44:56.956Z,2.80
2022-07-29T02:45:57.239Z,3.10
2022-07-29T02:46:57.344Z,3.20
2022-07-29T02:47:57.481Z,3.00
2022-07-29T02:48:57.695Z,3.00
2022-07-29T02:49:57.851Z,2.90
2022-07-29T02:50:58.021Z,2.90
2022-07-29T02:51:58.184Z,2.90
2022-07-29T02:52:58.331Z,2.80
2022-07-29T02:53:58.534Z,3.00
2022-07-29T02:54:58.712Z,3.10
2022-07-29T02:55:58.872Z,2.80
2022-07-29T02:56:59.023Z,2.90
2022-07-29T02:57:59.182Z,2.90
2022-07-29T02:58:59.346Z,3.20
2022-07-29T02:59:59.536Z,2.90
2022-07-29T03:00:59.693Z,3.00
2022-07-29T03:01:59.950Z,2.80
2022-07-29T03:03:00.027Z,2.90
2022-07-29T03:04:00.176Z,3.00
2022-07-29T03:05:00.430Z,3.10
2022-07-29T03:06:00.536Z,2.70
2022-07-29T03:07:00.702Z,3.20
2022-07-29T03:08:00.859Z,2.90
2022-07-29T03:09:01.014Z,3.10
2022-07-29T03:10:01.196Z,3.00
2022-07-29T03:11:01.350Z,3.10
2022-07-29T03:12:01.506Z,3.20
2022-07-29T03:13:01.657Z,3.10
2022-07-29T03:14:01.879Z,2.90
2022-07-29T03:15:02.032Z,2.90
2022-07-29T03:16:02.270Z,2.80
2022-07-29T03:17:02.368Z,2.80
2022-07-29T03:18:02.548Z,3.20
2022-07-29T03:19:02.721Z,2.80
2022-07-29T03:20:02.899Z,2.90
2022-07-29T03:21:03.098Z,3.10
2022-07-29T03:22:03.252Z,3.20
2022-07-29T03:23:03.414Z,3.00
2022-07-29T03:24:09.808Z,3.20
2022-07-29T03:25:04.775Z,3.10
2022-07-29T03:26:03.943Z,2.90
2022-07-29T03:27:04.123Z,2.80
2022-07-29T03:28:04.303Z,3.20
2022-07-29T03:29:04.479Z,2.90
2022-07-29T03:30:04.681Z,3.10
2022-07-29T03:31:04.934Z,2.90
2022-07-29T03:32:08.302Z,2.90
2022-07-29T03:33:05.193Z,3.00
2022-07-29T03:34:06.383Z,2.90
2022-07-29T03:35:05.574Z,3.00
2022-07-29T03:36:05.756Z,2.90
2022-07-29T03:37:05.927Z,2.90
2022-07-29T03:38:06.109Z,2.90
2022-07-29T03:39:06.290Z,2.70
2022-07-29T03:40:06.510Z,3.10
2022-07-29T03:41:06.647Z,2.90
2022-07-29T03:42:06.826Z,2.80
2022-07-29T03:43:07.004Z,3.10
2022-07-29T03:44:07.185Z,3.00
2022-07-29T03:45:07.374Z,2.60
2022-07-29T03:46:07.578Z,3.00
2022-07-29T03:47:07.678Z,2.90
2022-07-29T03:48:07.858Z,3.20
2022-07-29T03:49:08.110Z,3.10
2022-07-29T03:50:10.827Z,3.00
2022-07-29T03:51:08.415Z,3.10
2022-07-29T03:52:08.570Z,3.10
2022-07-29T03:53:08.728Z,3.10
2022-07-29T03:54:10.303Z,2.80
2022-07-29T03:55:09.082Z,2.70
2022-07-29T03:56:09.251Z,2.90
2022-07-29T03:57:09.412Z,3.30
2022-07-29T03:58:09.568Z,3.20
2022-07-29T03:59:09.762Z,3.00
2022-07-29T04:00:09.953Z,3.00
2022-07-29T04:01:10.110Z,3.20
2022-07-29T04:02:10.381Z,2.80
2022-07-29T04:03:11.804Z,3.00
2022-07-29T04:04:10.675Z,3.00
2022-07-29T04:05:10.856Z,2.90
2022-07-29T04:06:11.038Z,3.00
2022-07-29T04:07:11.196Z,3.20
2022-07-29T04:08:11.391Z,2.90
2022-07-29T04:09:11.557Z,2.80
2022-07-29T04:10:11.717Z,3.10
2022-07-29T04:11:11.911Z,3.00
2022-07-29T04:12:12.082Z,2.90
2022-07-29T04:13:12.247Z,2.90
2022-07-29T04:14:12.694Z,2.90
2022-07-29T04:15:12.624Z,3.10
2022-07-29T04:16:12.833Z,2.90
2022-07-29T04:17:12.975Z,2.90
2022-07-29T04:18:13.158Z,3.20
2022-07-29T04:19:13.324Z,3.00
2022-07-29T04:20:13.510Z,3.10
2022-07-29T04:21:13.655Z,2.80
2022-07-29T04:22:13.849Z,2.80
2022-07-29T04:23:14.034Z,2.90
2022-07-29T04:24:14.540Z,2.80
2022-07-29T04:25:14.386Z,2.60
2022-07-29T04:26:14.563Z,3.00
2022-07-29T04:27:14.742Z,2.90
2022-07-29T04:28:14.894Z,3.00
2022-07-29T04:29:15.084Z,3.10
2022-07-29T04:30:15.225Z,2.90
2022-07-29T04:31:15.476Z,2.90
2022-07-29T04:32:15.605Z,3.00
2022-07-29T04:33:15.785Z,2.70
2022-07-29T04:34:16.306Z,3.00
2022-07-29T04:35:16.136Z,3.10
2022-07-29T04:36:28.852Z,2.90
2022-07-29T04:37:17.507Z,3.00
2022-07-29T04:38:17.265Z,3.00
2022-07-29T04:39:22.170Z,2.80
2022-07-29T04:40:17.998Z,3.00
2022-07-29T04:41:17.177Z,3.10
2022-07-29T04:42:17.419Z,2.90
2022-07-29T04:43:22.476Z,3.00
2022-07-29T04:44:19.245Z,2.90
2022-07-29T04:45:22.519Z,2.60
2022-07-29T04:46:18.124Z,3.30
2022-07-29T04:47:18.242Z,2.70
2022-07-29T04:48:18.419Z,2.90
2022-07-29T04:49:18.661Z,3.00
2022-07-29T04:50:18.752Z,2.90
2022-07-29T04:51:18.935Z,2.90
2022-07-29T04:52:19.203Z,3.20
2022-07-29T04:53:19.274Z,3.00
2022-07-29T04:54:19.744Z,2.80
2022-07-29T04:55:19.612Z,3.20
2022-07-29T04:56:19.809Z,2.80
2022-07-29T04:57:19.994Z,2.80
2022-07-29T04:58:20.165Z,3.00
2022-07-29T04:59:20.353Z,2.70
2022-07-29T05:00:20.544Z,2.80
2022-07-29T05:01:20.810Z,3.30
2022-07-29T05:02:20.906Z,3.00
2022-07-29T05:03:21.034Z,3.00
2022-07-29T05:04:21.463Z,2.60
2022-07-29T05:05:21.388Z,3.20
2022-07-29T05:06:21.593Z,2.90
2022-07-29T05:07:21.727Z,2.80
2022-07-29T05:08:21.917Z,2.80
2022-07-29T05:09:22.097Z,2.70
2022-07-29T05:10:22.287Z,2.90
2022-07-29T05:11:24.983Z,2.60
2022-07-29T05:12:22.629Z,2.80
2022-07-29T05:13:22.812Z,3.00
2022-07-29T05:14:22.983Z,2.80
2022-07-29T05:15:23.159Z,2.90
2022-07-29T05:16:23.389Z,3.10
2022-07-29T05:17:23.500Z,2.90
2022-07-29T05:18:26.024Z,3.20
2022-07-29T05:19:23.874Z,2.90
2022-07-29T05:20:24.062Z,3.10
2022-07-29T05:21:24.232Z,3.00
2022-07-29T05:22:24.706Z,3.00
2022-07-29T05:23:24.571Z,2.90
2022-07-29T05:24:24.763Z,3.20
2022-07-29T05:25:24.936Z,2.90
2022-07-29T05:26:26.078Z,3.10
2022-07-29T05:27:25.278Z,3.20
2022-07-29T05:28:25.455Z,3.00
2022-07-29T05:29:43.270Z,3.00
2022-07-29T05:30:26.801Z,2.70
2022-07-29T05:31:26.025Z,2.80
2022-07-29T05:32:26.147Z,3.10
2022-07-29T05:33:36.229Z,3.10
2022-07-29T05:34:27.501Z,3.20
2022-07-29T05:35:26.652Z,3.10
2022-07-29T05:36:26.855Z,3.10
2022-07-29T05:37:27.006Z,3.20
2022-07-29T05:38:27.189Z,3.10
2022-07-29T05:39:47.239Z,2.90
2022-07-29T05:40:28.528Z,2.80
2022-07-29T05:41:27.708Z,3.10
2022-07-29T05:42:27.880Z,2.90
2022-07-29T05:43:28.029Z,3.00
2022-07-29T05:44:28.229Z,3.00
2022-07-29T05:45:28.373Z,3.20
2022-07-29T05:46:28.578Z,3.00
2022-07-29T05:47:28.738Z,2.80
2022-07-29T05:48:28.942Z,3.00
2022-07-29T05:49:29.212Z,2.90
2022-07-29T05:50:29.273Z,2.80
2022-07-29T05:51:29.465Z,3.00
2022-07-29T05:52:29.664Z,3.00
2022-07-29T05:53:29.820Z,2.80
2022-07-29T05:54:37.007Z,2.80
2022-07-29T05:55:30.145Z,3.10
2022-07-29T05:56:30.340Z,3.20
2022-07-29T05:57:30.549Z,2.70
2022-07-29T05:58:30.697Z,3.10
2022-07-29T05:59:30.888Z,3.20
2022-07-29T06:00:31.061Z,2.90
2022-07-29T06:01:31.246Z,2.80
2022-07-29T06:02:31.403Z,2.70
2022-07-29T06:03:31.538Z,2.70
2022-07-29T06:04:31.737Z,3.00
2022-07-29T06:05:31.881Z,2.80
2022-07-29T06:06:32.060Z,3.20
2022-07-29T06:07:32.269Z,2.90
2022-07-29T06:08:32.432Z,3.20
2022-07-29T06:09:36.050Z,3.00
2022-07-29T06:10:32.751Z,3.10
2022-07-29T06:11:32.942Z,2.90
2022-07-29T06:12:33.142Z,3.10
2022-07-29T06:13:33.312Z,3.00
2022-07-29T06:14:33.513Z,2.70
2022-07-29T06:15:33.719Z,2.80
2022-07-29T06:16:33.875Z,3.20
2022-07-29T06:17:34.023Z,2.70
2022-07-29T06:18:34.183Z,2.70
2022-07-29T06:19:34.355Z,3.20
2022-07-29T06:20:34.553Z,3.10
2022-07-29T06:21:34.777Z,3.00
2022-07-29T06:22:34.886Z,2.90
2022-07-29T06:23:35.084Z,3.00
2022-07-29T06:24:35.235Z,2.80
2022-07-29T06:25:35.398Z,2.70
2022-07-29T06:26:39.699Z,3.20
2022-07-29T06:27:35.757Z,3.00
2022-07-29T06:28:35.886Z,3.00
2022-07-29T06:29:36.085Z,2.90
2022-07-29T06:30:36.295Z,2.80
2022-07-29T06:31:36.423Z,2.80
2022-07-29T06:32:41.324Z,3.20
2022-07-29T06:33:37.760Z,3.10
2022-07-29T06:34:36.933Z,2.70
2022-07-29T06:35:38.750Z,3.00
2022-07-29T06:36:37.732Z,2.90
2022-07-29T06:37:37.452Z,3.00
2022-07-29T06:38:40.600Z,2.80
2022-07-29T06:39:38.787Z,2.70
2022-07-29T06:40:37.974Z,2.90
2022-07-29T06:41:38.101Z,2.50
2022-07-29T06:42:38.283Z,2.90
2022-07-29T06:43:50.251Z,3.10
2022-07-29T06:44:39.659Z,2.70
2022-07-29T06:45:38.891Z,2.90
2022-07-29T06:46:39.080Z,2.90
2022-07-29T06:47:39.161Z,2.80
2022-07-29T06:48:39.357Z,2.80
2022-07-29T06:49:39.505Z,3.00
2022-07-29T06:50:39.679Z,2.70
2022-07-29T06:51:39.835Z,2.60
2022-07-29T06:52:40.020Z,2.60
2022-07-29T06:53:40.206Z,2.80
2022-07-29T06:54:41.396Z,2.80
2022-07-29T06:55:40.579Z,2.50
2022-07-29T06:56:40.753Z,3.20
2022-07-29T06:57:40.924Z,3.10
2022-07-29T06:58:41.117Z,2.80
2022-07-29T06:59:41.289Z,3.00
2022-07-29T07:00:41.468Z,2.90
2022-07-29T07:01:41.702Z,3.00
2022-07-29T07:02:41.902Z,2.90
2022-07-29T07:03:42.020Z,2.80
2022-07-29T07:04:42.170Z,2.90
2022-07-29T07:05:42.348Z,2.80
2022-07-29T07:06:42.539Z,2.80
2022-07-29T07:07:42.720Z,2.70
2022-07-29T07:08:42.921Z,2.80
2022-07-29T07:09:43.091Z,2.90
2022-07-29T07:10:43.262Z,3.00
2022-07-29T07:11:43.441Z,3.10
2022-07-29T07:12:43.624Z,2.90
2022-07-29T07:13:43.830Z,3.10
2022-07-29T07:14:43.973Z,2.80
2022-07-29T07:15:44.147Z,3.10
2022-07-29T07:16:44.336Z,3.00
2022-07-29T07:17:44.494Z,3.00
2022-07-29T07:18:44.693Z,2.40
2022-07-29T07:19:44.855Z,2.80
2022-07-29T07:20:45.037Z,2.90
2022-07-29T07:21:45.217Z,3.30
2022-07-29T07:22:45.396Z,3.00
2022-07-29T07:23:45.600Z,3.10
2022-07-29T07:24:45.736Z,2.70
2022-07-29T07:25:45.923Z,2.50
2022-07-29T07:26:46.117Z,2.90
2022-07-29T07:27:46.280Z,3.40
2022-07-29T07:28:46.409Z,2.90
2022-07-29T07:29:46.592Z,3.10
2022-07-29T07:30:46.779Z,2.90
2022-07-29T07:31:47.100Z,3.00
2022-07-29T07:32:47.139Z,2.70
2022-07-29T07:33:47.320Z,3.00
2022-07-29T07:34:47.462Z,2.50
2022-07-29T07:35:47.641Z,2.50
2022-07-29T07:36:47.820Z,2.70
2022-07-29T07:37:48.020Z,2.60
2022-07-29T07:38:48.162Z,2.90
2022-07-29T07:39:48.346Z,3.10
2022-07-29T07:40:48.514Z,2.80
2022-07-29T07:41:48.698Z,2.90
2022-07-29T07:42:48.892Z,3.00
2022-07-29T07:43:49.035Z,2.90
2022-07-29T07:45:12.104Z,3.50
2022-07-29T07:45:50.427Z,2.60
2022-07-29T07:46:49.556Z,2.70
2022-07-29T07:47:49.754Z,2.80
2022-07-29T07:48:49.968Z,2.60
2022-07-29T07:49:50.098Z,2.50
2022-07-29T07:50:50.306Z,2.80
2022-07-29T07:51:51.179Z,2.50
2022-07-29T07:52:50.603Z,2.90
2022-07-29T07:53:50.789Z,2.50
2022-07-29T07:54:50.958Z,2.80
2022-07-29T07:56:09.922Z,2.50
2022-07-29T07:56:53.338Z,2.90
2022-07-29T07:57:51.473Z,2.60
2022-07-29T07:58:51.642Z,2.70
2022-07-29T07:59:51.830Z,2.80
2022-07-29T08:00:52.054Z,2.60
2022-07-29T08:01:55.999Z,2.30
2022-07-29T08:02:52.435Z,2.40
2022-07-29T08:03:52.558Z,2.70
2022-07-29T08:04:52.732Z,2.60
2022-07-29T08:05:52.994Z,2.40
2022-07-29T08:06:53.063Z,2.60
2022-07-29T08:07:53.275Z,2.30
2022-07-29T08:08:56.257Z,2.30
2022-07-29T08:09:53.571Z,2.60
2022-07-29T08:10:53.775Z,2.60
2022-07-29T08:11:53.927Z,2.50
2022-07-29T08:12:54.127Z,2.40
2022-07-29T08:13:54.293Z,2.30
2022-07-29T08:14:54.470Z,2.70
2022-07-29T08:15:54.654Z,2.30
2022-07-29T08:16:54.889Z,2.20
2022-07-29T08:17:55.057Z,2.40
2022-07-29T08:18:55.204Z,2.50
2022-07-29T08:19:55.368Z,2.40
2022-07-29T08:20:55.546Z,2.60
2022-07-29T08:21:56.019Z,2.20
2022-07-29T08:22:55.929Z,2.40
2022-07-29T08:24:00.750Z,2.60
2022-07-29T08:24:57.260Z,2.20
2022-07-29T08:25:56.442Z,2.40
2022-07-29T08:26:56.619Z,2.40
2022-07-29T08:27:56.825Z,2.60
2022-07-29T08:28:56.992Z,2.70
2022-07-29T08:29:57.188Z,2.40
2022-07-29T08:30:57.352Z,2.10
2022-07-29T08:31:57.592Z,2.10
2022-07-29T08:32:57.727Z,2.40
2022-07-29T08:33:57.879Z,2.20
2022-07-29T08:34:58.033Z,1.90
2022-07-29T08:35:58.222Z,2.20
2022-07-29T08:36:58.405Z,2.00
2022-07-29T08:37:58.584Z,2.00
2022-07-29T08:38:58.806Z,2.20
2022-07-29T08:39:58.939Z,2.20
2022-07-29T08:40:59.126Z,2.20
2022-07-29T08:41:59.403Z,2.30
2022-07-29T08:42:59.478Z,2.30
2022-07-29T08:43:59.676Z,2.20
2022-07-29T08:44:59.849Z,2.20
2022-07-29T08:46:00.083Z,2.10
2022-07-29T08:47:00.208Z,2.10
2022-07-29T08:48:00.388Z,2.10
2022-07-29T08:49:00.631Z,2.20
2022-07-29T08:50:00.749Z,2.20
2022-07-29T08:51:00.898Z,2.20
2022-07-29T08:52:01.081Z,2.00
2022-07-29T08:53:01.259Z,2.00
2022-07-29T08:54:01.454Z,2.20
2022-07-29T08:55:01.624Z,2.30
2022-07-29T08:56:01.775Z,2.10
2022-07-29T08:57:01.920Z,2.20
2022-07-29T08:58:02.077Z,2.30
2022-07-29T08:59:02.274Z,2.10
2022-07-29T09:00:07.097Z,2.40
2022-07-29T09:01:03.622Z,2.20
2022-07-29T09:02:02.810Z,2.30
2022-07-29T09:03:02.924Z,1.90
2022-07-29T09:04:03.238Z,2.00
2022-07-29T09:05:03.295Z,2.00
2022-07-29T09:06:03.482Z,2.30
2022-07-29T09:07:03.655Z,2.20
2022-07-29T09:08:03.837Z,2.10
2022-07-29T09:09:04.037Z,2.40
2022-07-29T09:10:04.208Z,2.20
2022-07-29T09:11:05.754Z,2.40
2022-07-29T09:12:04.549Z,2.20
2022-07-29T09:13:04.723Z,1.90
2022-07-29T09:14:04.919Z,2.10
2022-07-29T09:15:05.086Z,2.00
2022-07-29T09:16:09.179Z,2.10
2022-07-29T09:17:05.751Z,2.10
2022-07-29T09:18:05.605Z,2.00
2022-07-29T09:19:05.790Z,2.10
2022-07-29T09:20:05.935Z,2.00
2022-07-29T09:21:06.119Z,2.30
2022-07-29T09:22:06.313Z,2.00
2022-07-29T09:23:06.482Z,2.10
2022-07-29T09:24:06.663Z,2.00
2022-07-29T09:25:06.843Z,2.20
2022-07-29T09:26:07.024Z,2.20
2022-07-29T09:27:07.216Z,2.20
2022-07-29T09:28:07.364Z,2.20
2022-07-29T09:29:07.547Z,2.20
2022-07-29T09:30:07.745Z,2.10
2022-07-29T09:31:07.930Z,2.30
2022-07-29T09:32:08.160Z,2.10
2022-07-29T09:33:08.236Z,2.30
2022-07-29T09:34:08.417Z,2.30
2022-07-29T09:35:08.616Z,2.10
2022-07-29T09:36:08.787Z,1.90
2022-07-29T09:37:08.969Z,1.90
2022-07-29T09:38:09.150Z,2.10
2022-07-29T09:39:09.365Z,2.10
2022-07-29T09:40:11.783Z,2.20
2022-07-29T09:41:09.672Z,2.20
2022-07-29T09:42:09.859Z,2.00
2022-07-29T09:43:10.039Z,2.00
2022-07-29T09:44:10.241Z,2.10
2022-07-29T09:45:10.390Z,2.20
2022-07-29T09:46:12.277Z,2.20
2022-07-29T09:47:10.778Z,1.80
2022-07-29T09:48:10.913Z,2.00
2022-07-29T09:49:11.147Z,1.90
2022-07-29T09:50:11.263Z,2.00
2022-07-29T09:51:11.443Z,2.10
2022-07-29T09:52:11.614Z,2.30
2022-07-29T09:53:11.803Z,2.10
2022-07-29T09:54:11.956Z,1.80
2022-07-29T09:55:13.644Z,2.20
2022-07-29T09:56:13.294Z,1.80
2022-07-29T09:57:12.495Z,2.00
2022-07-29T09:58:12.626Z,2.00
2022-07-29T09:59:12.809Z,2.00
2022-07-29T10:00:12.988Z,1.90
2022-07-29T10:01:13.217Z,2.00
2022-07-29T10:02:13.348Z,1.90
2022-07-29T10:03:13.563Z,1.90
2022-07-29T10:04:13.659Z,1.80
2022-07-29T10:05:13.839Z,1.80
2022-07-29T10:06:14.009Z,2.10
2022-07-29T10:07:14.213Z,2.00
2022-07-29T10:08:14.352Z,2.10
2022-07-29T10:09:14.531Z,1.90
2022-07-29T10:10:14.801Z,1.80
2022-07-29T10:11:14.890Z,1.70
2022-07-29T10:12:15.086Z,1.60
2022-07-29T10:13:16.340Z,1.80
2022-07-29T10:14:15.418Z,1.70
2022-07-29T10:15:15.593Z,1.80
2022-07-29T10:16:15.836Z,1.90
2022-07-29T10:17:15.945Z,2.00
2022-07-29T10:18:16.084Z,1.90
2022-07-29T10:19:16.263Z,1.80
2022-07-29T10:20:16.654Z,1.90
2022-07-29T10:21:34.909Z,1.80
2022-07-29T10:22:43.329Z,1.80
2022-07-29T10:23:18.000Z,2.00
2022-07-29T10:24:17.179Z,2.00
2022-07-29T10:25:17.343Z,1.60
2022-07-29T10:26:17.518Z,1.80
2022-07-29T10:27:17.712Z,1.80
2022-07-29T10:28:17.881Z,1.90
2022-07-29T10:29:18.023Z,1.70
2022-07-29T10:30:18.199Z,1.80
2022-07-29T10:31:18.437Z,1.80
2022-07-29T10:32:18.550Z,1.90
2022-07-29T10:33:18.694Z,2.20
2022-07-29T10:34:18.872Z,1.70
2022-07-29T10:35:19.062Z,1.90
2022-07-29T10:36:19.241Z,1.70
2022-07-29T10:37:19.466Z,1.80
2022-07-29T10:38:19.593Z,1.80
2022-07-29T10:39:22.363Z,2.00
2022-07-29T10:40:19.973Z,1.80
2022-07-29T10:41:20.145Z,1.70
2022-07-29T10:42:20.391Z,1.90
2022-07-29T10:43:21.487Z,1.90
2022-07-29T10:44:22.889Z,1.90
2022-07-29T10:45:21.447Z,1.90
2022-07-29T10:46:21.046Z,1.70
2022-07-29T10:47:21.262Z,2.10
2022-07-29T10:48:21.395Z,1.90
2022-07-29T10:49:24.729Z,1.90
2022-07-29T10:50:21.739Z,1.80
2022-07-29T10:51:21.882Z,1.80
2022-07-29T10:52:26.570Z,2.10
2022-07-29T10:53:23.255Z,1.80
2022-07-29T10:54:22.418Z,2.10
2022-07-29T10:55:22.599Z,1.90
2022-07-29T10:56:22.760Z,2.00
2022-07-29T10:57:25.934Z,1.80
2022-07-29T10:58:24.090Z,2.00
2022-07-29T10:59:23.565Z,2.20
2022-07-29T11:00:23.456Z,1.90
2022-07-29T11:01:37.156Z,2.00
2022-07-29T11:02:41.360Z,1.90
2022-07-29T11:03:24.997Z,2.20
2022-07-29T11:04:24.135Z,1.90
2022-07-29T11:05:24.295Z,1.80
2022-07-29T11:06:26.891Z,1.90
2022-07-29T11:07:24.624Z,2.00
2022-07-29T11:08:26.377Z,1.90
2022-07-29T11:09:25.722Z,2.20
2022-07-29T11:10:26.977Z,2.20
2022-07-29T11:11:29.755Z,2.00
2022-07-29T11:12:25.487Z,1.90
2022-07-29T11:13:25.606Z,2.10
2022-07-29T11:14:26.556Z,2.30
2022-07-29T11:15:28.431Z,2.10
2022-07-29T11:16:26.156Z,2.30
2022-07-29T11:17:26.328Z,2.20
2022-07-29T11:18:26.498Z,1.90
2022-07-29T11:19:30.504Z,2.30
2022-07-29T11:20:26.819Z,2.50
2022-07-29T11:21:26.981Z,2.20
2022-07-29T11:22:28.180Z,2.30
2022-07-29T11:23:27.356Z,2.20
2022-07-29T11:24:28.968Z,2.30
2022-07-29T11:25:42.366Z,2.40
2022-07-29T11:26:28.861Z,2.20
2022-07-29T11:27:28.604Z,2.20
2022-07-29T11:28:28.364Z,2.30
2022-07-29T11:29:28.474Z,2.30
2022-07-29T11:30:28.564Z,2.20
2022-07-29T11:31:28.754Z,2.20
2022-07-29T11:32:29.201Z,2.00
2022-07-29T11:33:54.207Z,2.00
2022-07-29T11:34:30.268Z,2.00
2022-07-29T11:35:38.008Z,2.30
2022-07-29T11:36:30.645Z,2.10
2022-07-29T11:37:29.816Z,2.20
2022-07-29T11:38:32.079Z,2.30
2022-07-29T11:39:36.803Z,2.10
2022-07-29T11:40:31.317Z,2.30
2022-07-29T11:41:31.857Z,2.10
2022-07-29T11:42:32.955Z,2.10
2022-07-29T11:43:30.859Z,2.10
2022-07-29T11:44:31.012Z,2.10
2022-07-29T11:45:43.923Z,2.30
2022-07-29T11:46:32.384Z,2.30
2022-07-29T11:47:31.595Z,2.20
2022-07-29T11:48:32.718Z,2.20
2022-07-29T11:49:33.325Z,2.20
2022-07-29T11:50:32.046Z,2.30
2022-07-29T11:51:32.786Z,2.30
2022-07-29T11:52:32.371Z,2.20
2022-07-29T11:53:33.391Z,2.00
2022-07-29T11:54:57.336Z,2.20
2022-07-29T11:55:34.008Z,2.40
2022-07-29T11:56:33.101Z,2.40
2022-07-29T11:57:36.362Z,2.50
2022-07-29T11:58:33.408Z,2.40
2022-07-29T11:59:34.804Z,2.70
2022-07-29T12:00:33.756Z,2.60
2022-07-29T12:01:33.952Z,2.80
2022-07-29T12:02:37.088Z,2.80
2022-07-29T12:03:35.840Z,2.70
2022-07-29T12:04:34.467Z,2.60
2022-07-29T12:05:36.433Z,2.70
2022-07-29T12:06:34.844Z,2.70
2022-07-29T12:07:35.449Z,2.40
2022-07-29T12:08:35.170Z,2.70
2022-07-29T12:09:40.149Z,2.80
2022-07-29T12:10:36.541Z,2.70
2022-07-29T12:11:35.702Z,2.70
2022-07-29T12:12:35.874Z,2.70
2022-07-29T12:13:37.239Z,2.80
2022-07-29T12:14:36.202Z,2.70
2022-07-29T12:15:46.246Z,2.60
2022-07-29T12:16:37.535Z,2.70
2022-07-29T12:17:36.849Z,2.90
2022-07-29T12:18:36.877Z,2.40
2022-07-29T12:19:37.041Z,2.70
2022-07-29T12:20:37.243Z,2.70
2022-07-29T12:21:37.413Z,2.70
2022-07-29T12:22:38.595Z,2.70
2022-07-29T12:23:37.765Z,2.70
2022-07-29T12:24:37.955Z,3.00
2022-07-29T12:25:38.114Z,2.80
2022-07-29T12:26:38.291Z,2.70
2022-07-29T12:27:40.245Z,2.80
2022-07-29T12:28:38.654Z,2.90
2022-07-29T12:29:38.801Z,3.00
2022-07-29T12:30:39.970Z,2.60
2022-07-29T12:31:43.140Z,2.90
2022-07-29T12:32:40.415Z,2.80
2022-07-29T12:33:39.472Z,2.60
2022-07-29T12:34:39.654Z,2.60
2022-07-29T12:35:39.879Z,2.60
2022-07-29T12:36:40.002Z,3.20
2022-07-29T12:37:41.272Z,3.10
2022-07-29T12:38:40.384Z,2.90
2022-07-29T12:39:40.513Z,2.90
2022-07-29T12:40:40.692Z,2.90
2022-07-29T12:41:40.882Z,2.80
2022-07-29T12:42:41.064Z,2.90
2022-07-29T12:43:41.285Z,2.90
2022-07-29T12:44:41.415Z,2.80
2022-07-29T12:45:41.574Z,2.80
2022-07-29T12:46:41.826Z,2.80
2022-07-29T12:47:41.928Z,2.80
2022-07-29T12:48:42.186Z,2.70
2022-07-29T12:49:42.258Z,2.70
2022-07-29T12:50:42.447Z,2.50
2022-07-29T12:51:42.597Z,2.60
2022-07-29T12:52:42.788Z,2.50
2022-07-29T12:53:43.207Z,2.40
2022-07-29T12:54:43.140Z,2.60
2022-07-29T12:55:43.311Z,2.70
2022-07-29T12:56:44.809Z,2.90
2022-07-29T12:57:43.650Z,3.00
2022-07-29T12:58:44.516Z,2.70
2022-07-29T12:59:44.020Z,2.70
2022-07-29T13:00:44.239Z,2.70
2022-07-29T13:01:44.385Z,2.70
2022-07-29T13:02:44.662Z,2.40
2022-07-29T13:03:44.774Z,2.70
2022-07-29T13:04:45.924Z,2.80
2022-07-29T13:05:49.097Z,2.50
2022-07-29T13:06:46.128Z,2.90
2022-07-29T13:07:54.981Z,2.80
2022-07-29T13:08:46.665Z,2.60
2022-07-29T13:09:45.823Z,2.50
2022-07-29T13:10:46.006Z,2.40
2022-07-29T13:11:48.670Z,2.60
2022-07-29T13:12:46.385Z,2.50
2022-07-29T13:13:46.577Z,2.40
2022-07-29T13:14:46.747Z,2.60
2022-07-29T13:15:46.888Z,2.70
2022-07-29T13:16:47.108Z,2.70
2022-07-29T13:17:47.946Z,2.60
2022-07-29T13:18:47.448Z,2.60
2022-07-29T13:19:47.644Z,2.60
2022-07-29T13:20:47.841Z,2.60